CSY3 weather

Sorel Airport
Sorel, Quebec, Canada

Public forecast

Using degrees Celsius for public forecast. Weather courtesy of forecast.io.

METAR (pilot weather report)

Closest report is Trois-Rivières Airport, 27.0 nm (50.0 km) NE. Retrieved 2019/07/17 11:00 UTC (55 minutes ago):

CYRQ 171100Z AUTO 23010G15KT 9SM BKN038 23/20 A2979 RMK SLP090 DENSITY ALT 1200FT

TAF (pilot weather forecast)

Closest forecast is Trois-Rivières Airport, 27.0 nm (50.0 km) NE. Retrieved 2019/07/17 08:00 UTC (4 hours ago):

TAF CYRQ 170738Z 1708/1720 21008KT P6SM FEW050 SCT150 FM171400 23010G20KT P6SM BKN030 BKN230 TEMPO 1714/1718 5SM SHRA BR OVC020 BECMG 1716/1718 35006KT FM171900 36008KT P6SM SCT040 RMK FCST BASED ON AUTO OBS. NXT FCST BY 171400Z